createdAt,value
2018-11-04T00:00:30.976Z,3.70
2018-11-04T00:03:06.090Z,3.80
2018-11-04T00:05:41.021Z,3.80
2018-11-04T00:08:16.210Z,3.80
2018-11-04T00:10:51.145Z,3.90
2018-11-04T00:13:26.003Z,3.90
2018-11-04T00:16:00.471Z,4.00
2018-11-04T00:18:35.161Z,4.10
2018-11-04T00:21:10.125Z,4.10
2018-11-04T00:23:44.170Z,4.10
2018-11-04T00:26:19.655Z,4.20
2018-11-04T00:28:54.281Z,4.20
2018-11-04T00:31:28.815Z,4.20
2018-11-04T00:34:03.241Z,4.30
2018-11-04T00:36:37.619Z,4.30
2018-11-04T00:39:13.130Z,4.30
2018-11-04T00:41:48.177Z,4.30
2018-11-04T00:44:22.240Z,4.30
2018-11-04T00:46:57.365Z,4.30
2018-11-04T00:49:31.721Z,4.30
2018-11-04T00:52:06.501Z,4.30
2018-11-04T00:54:41.737Z,4.40
2018-11-04T00:57:17.054Z,4.40
2018-11-04T00:59:51.942Z,4.40
2018-11-04T01:02:27.094Z,4.40
2018-11-04T01:05:01.311Z,4.40
2018-11-04T01:07:35.927Z,4.40
2018-11-04T01:10:11.066Z,4.30
2018-11-04T01:12:46.286Z,4.40
2018-11-04T01:15:20.561Z,4.30
2018-11-04T01:17:55.014Z,4.30
2018-11-04T01:20:29.727Z,4.20
2018-11-04T01:23:04.530Z,4.20
2018-11-04T01:25:39.205Z,4.10
2018-11-04T01:28:14.255Z,4.10
2018-11-04T01:30:48.750Z,4.20
2018-11-04T01:33:23.762Z,4.20
2018-11-04T01:35:58.540Z,4.20
2018-11-04T01:38:32.976Z,4.20
2018-11-04T01:41:07.274Z,4.20
2018-11-04T01:43:41.304Z,4.20
2018-11-04T01:46:16.265Z,4.10
2018-11-04T01:48:51.324Z,4.10
2018-11-04T01:51:25.800Z,4.10
2018-11-04T01:53:59.793Z,4.10
2018-11-04T01:56:35.474Z,4.10
2018-11-04T01:59:09.281Z,4.10
2018-11-04T02:01:43.749Z,4.10
2018-11-04T02:04:19.200Z,4.10
2018-11-04T02:06:53.795Z,4.10
2018-11-04T02:09:28.936Z,4.20
2018-11-04T02:12:03.751Z,4.20
2018-11-04T02:14:44.987Z,4.30
2018-11-04T02:17:19.206Z,4.40
2018-11-04T02:19:53.415Z,4.40
2018-11-04T02:22:28.713Z,4.50
2018-11-04T02:25:04.066Z,4.50
2018-11-04T02:27:39.022Z,4.60
2018-11-04T02:30:15.285Z,4.70
2018-11-04T02:32:49.420Z,4.70
2018-11-04T02:35:23.837Z,4.80
2018-11-04T02:37:58.140Z,4.80
2018-11-04T02:40:32.842Z,4.90
2018-11-04T02:43:06.940Z,4.90
2018-11-04T02:45:42.194Z,4.80
2018-11-04T02:48:16.378Z,4.80
2018-11-04T02:50:50.591Z,4.90
2018-11-04T02:53:25.467Z,4.80
2018-11-04T02:56:00.235Z,4.80
2018-11-04T02:58:34.645Z,4.80
2018-11-04T03:01:09.410Z,4.70
2018-11-04T03:03:44.236Z,4.60
2018-11-04T03:06:19.357Z,4.60
2018-11-04T03:08:53.412Z,4.50
2018-11-04T03:11:27.837Z,4.50
2018-11-04T03:14:02.530Z,4.50
2018-11-04T03:16:36.671Z,4.60
2018-11-04T03:19:11.854Z,4.60
2018-11-04T03:21:45.937Z,4.70
2018-11-04T03:24:21.246Z,4.80
2018-11-04T03:26:55.956Z,4.80
2018-11-04T03:29:30.920Z,4.90
2018-11-04T03:32:05.145Z,5.00
2018-11-04T03:34:40.179Z,5.00
2018-11-04T03:37:14.981Z,5.10
2018-11-04T03:39:49.478Z,5.10
2018-11-04T03:42:24.736Z,5.10
2018-11-04T03:44:59.019Z,5.20
2018-11-04T03:47:33.164Z,5.20
2018-11-04T03:50:10.364Z,5.20
2018-11-04T03:52:45.233Z,5.30
2018-11-04T03:55:20.134Z,5.30
2018-11-04T03:57:54.560Z,5.40
2018-11-04T04:00:29.524Z,5.50
2018-11-04T04:03:04.124Z,5.50
2018-11-04T04:05:38.618Z,5.60
2018-11-04T04:08:13.431Z,5.70
2018-11-04T04:10:47.688Z,5.70
2018-11-04T04:13:22.838Z,5.70
2018-11-04T04:15:57.746Z,5.80
2018-11-04T04:18:32.797Z,5.90
2018-11-04T04:21:09.221Z,5.90
2018-11-04T04:23:43.661Z,6.00
2018-11-04T04:26:18.156Z,6.10
2018-11-04T04:28:53.554Z,6.10
2018-11-04T04:31:27.940Z,6.20
2018-11-04T04:34:02.371Z,6.30
2018-11-04T04:36:36.591Z,6.30
2018-11-04T04:39:11.756Z,6.40
2018-11-04T04:41:46.330Z,6.40
2018-11-04T04:44:20.613Z,6.50
2018-11-04T04:46:55.826Z,6.50
2018-11-04T04:49:31.007Z,6.60
2018-11-04T04:52:05.853Z,6.60
2018-11-04T04:54:40.753Z,6.70
2018-11-04T04:57:15.166Z,6.70
2018-11-04T04:59:49.469Z,6.80
2018-11-04T05:02:24.100Z,6.90
2018-11-04T05:04:58.068Z,7.00
2018-11-04T05:07:33.628Z,7.00
2018-11-04T05:10:08.683Z,7.10
2018-11-04T05:12:43.704Z,7.20
2018-11-04T05:15:18.810Z,7.30
2018-11-04T05:17:53.121Z,7.30
2018-11-04T05:20:27.783Z,7.40
2018-11-04T05:23:01.727Z,7.40
2018-11-04T05:25:35.827Z,7.40
2018-11-04T05:28:09.854Z,7.40
2018-11-04T05:30:44.470Z,7.50
2018-11-04T05:33:19.330Z,7.50
2018-11-04T05:35:53.949Z,7.50
2018-11-04T05:38:28.552Z,7.60
2018-11-04T05:41:03.600Z,7.50
2018-11-04T05:43:38.369Z,7.60
2018-11-04T05:46:13.371Z,7.50
2018-11-04T05:48:47.738Z,7.50
2018-11-04T05:51:22.599Z,7.50
2018-11-04T05:53:57.093Z,7.50
2018-11-04T05:56:31.835Z,7.50
2018-11-04T05:59:08.126Z,7.50
2018-11-04T06:01:43.216Z,7.50
2018-11-04T06:04:17.372Z,7.50
2018-11-04T06:06:52.678Z,7.50
2018-11-04T06:09:27.424Z,7.40
2018-11-04T06:12:01.645Z,7.50
2018-11-04T06:14:36.225Z,7.50
2018-11-04T06:17:11.191Z,7.40
2018-11-04T06:19:46.118Z,7.30
2018-11-04T06:22:21.553Z,7.30
2018-11-04T06:24:56.125Z,7.30
2018-11-04T06:27:30.509Z,7.40
2018-11-04T06:30:07.194Z,7.40
2018-11-04T06:32:42.661Z,7.50
2018-11-04T06:35:17.049Z,7.50
2018-11-04T06:37:52.081Z,7.50
2018-11-04T06:40:26.639Z,7.60
2018-11-04T06:43:01.460Z,7.60
2018-11-04T06:45:36.675Z,7.60
2018-11-04T06:48:11.064Z,7.60
2018-11-04T06:50:45.109Z,7.60
2018-11-04T06:53:19.831Z,7.60
2018-11-04T06:55:53.924Z,7.60
2018-11-04T06:58:29.048Z,7.60
2018-11-04T07:01:03.433Z,7.70
2018-11-04T07:03:38.148Z,7.70
2018-11-04T07:06:44.860Z,7.70
2018-11-04T07:09:19.584Z,7.70
2018-11-04T07:11:53.946Z,7.70
2018-11-04T07:14:28.910Z,7.80
2018-11-04T07:17:03.559Z,7.90
2018-11-04T07:19:37.870Z,8.00
2018-11-04T07:22:11.974Z,8.00
2018-11-04T07:24:46.433Z,8.10
2018-11-04T07:27:20.373Z,8.10
2018-11-04T07:29:55.263Z,8.20
2018-11-04T07:32:29.555Z,8.20
2018-11-04T07:35:04.025Z,8.30
2018-11-04T07:37:38.501Z,8.30
2018-11-04T07:40:57.652Z,8.30
2018-11-04T07:43:44.416Z,8.40
2018-11-04T07:46:19.383Z,8.40
2018-11-04T07:48:53.766Z,8.40
2018-11-04T07:51:33.480Z,8.40
2018-11-04T07:54:07.737Z,8.50
2018-11-04T07:56:42.499Z,8.50
2018-11-04T07:59:16.930Z,8.60
2018-11-04T08:01:51.700Z,8.60
2018-11-04T08:04:26.761Z,8.70
2018-11-04T08:07:01.995Z,8.70
2018-11-04T08:09:41.754Z,8.70
2018-11-04T08:12:16.215Z,8.80
2018-11-04T08:14:50.401Z,8.80
2018-11-04T08:17:25.040Z,8.90
2018-11-04T08:20:04.250Z,8.90
2018-11-04T08:22:38.944Z,9.00
2018-11-04T08:25:13.219Z,9.00
2018-11-04T08:27:47.436Z,9.10
2018-11-04T08:30:22.330Z,9.20
2018-11-04T08:33:02.010Z,9.20
2018-11-04T08:35:36.655Z,9.30
2018-11-04T08:38:10.849Z,9.40
2018-11-04T08:40:45.318Z,9.40
2018-11-04T08:43:20.405Z,9.40
2018-11-04T08:45:55.833Z,9.50
2018-11-04T08:48:31.032Z,9.60
2018-11-04T08:51:05.997Z,9.60
2018-11-04T08:53:40.262Z,9.60
2018-11-04T08:56:15.238Z,9.70
2018-11-04T08:58:50.149Z,9.70
2018-11-04T09:01:26.325Z,9.70
2018-11-04T09:04:01.016Z,9.80
2018-11-04T09:06:42.047Z,9.80
2018-11-04T09:09:16.686Z,9.90
2018-11-04T09:11:51.727Z,10.00
2018-11-04T09:14:26.681Z,10.10
2018-11-04T09:17:00.640Z,10.10
2018-11-04T09:19:34.774Z,10.20
2018-11-04T09:22:09.574Z,10.30
2018-11-04T09:24:44.030Z,10.40
2018-11-04T09:27:18.540Z,10.40
2018-11-04T09:29:53.154Z,10.40
2018-11-04T09:32:29.241Z,10.50
2018-11-04T09:35:04.247Z,10.60
2018-11-04T09:37:39.228Z,10.60
2018-11-04T09:40:13.986Z,10.70
2018-11-04T09:42:48.655Z,10.80
2018-11-04T09:45:23.324Z,10.80
2018-11-04T09:47:57.691Z,10.90
2018-11-04T09:50:36.927Z,10.90
2018-11-04T09:53:11.085Z,11.00
2018-11-04T09:55:45.380Z,11.00
2018-11-04T09:58:20.704Z,11.00
2018-11-04T10:00:55.858Z,11.10
2018-11-04T10:03:30.225Z,11.10
2018-11-04T10:06:04.726Z,11.20
2018-11-04T10:08:39.229Z,11.20
2018-11-04T10:11:13.399Z,11.20
2018-11-04T10:13:48.480Z,11.20
2018-11-04T10:16:22.668Z,11.30
2018-11-04T10:18:57.565Z,11.30
2018-11-04T10:21:32.839Z,11.40
2018-11-04T10:24:07.624Z,11.40
2018-11-04T10:26:41.746Z,11.40
2018-11-04T10:29:17.024Z,11.40
2018-11-04T10:31:51.270Z,11.50
2018-11-04T10:34:25.735Z,11.50
2018-11-04T10:36:59.888Z,11.60
2018-11-04T10:39:34.539Z,11.50
2018-11-04T10:42:09.096Z,11.50
2018-11-04T10:44:43.699Z,11.50
2018-11-04T10:47:18.079Z,11.50
2018-11-04T10:49:53.304Z,11.60
2018-11-04T10:52:28.730Z,11.60
2018-11-04T10:55:03.725Z,11.70
2018-11-04T10:57:38.035Z,11.70
2018-11-04T11:00:17.713Z,11.70
2018-11-04T11:02:52.117Z,11.70
2018-11-04T11:05:26.791Z,11.70
2018-11-04T11:08:01.577Z,11.80
2018-11-04T11:10:36.372Z,11.80
2018-11-04T11:13:10.879Z,11.80
2018-11-04T11:15:46.214Z,11.90
2018-11-04T11:18:21.921Z,11.90
2018-11-04T11:20:56.012Z,12.00
2018-11-04T11:23:31.265Z,12.00
2018-11-04T11:26:06.095Z,12.00
2018-11-04T11:28:40.569Z,12.00
2018-11-04T11:31:15.344Z,12.10
2018-11-04T11:33:49.861Z,12.10
2018-11-04T11:36:24.954Z,12.10
2018-11-04T11:38:59.902Z,12.10
2018-11-04T11:41:35.039Z,12.20
2018-11-04T11:44:09.865Z,12.10
2018-11-04T11:46:44.256Z,12.10
2018-11-04T11:49:18.915Z,12.10
2018-11-04T11:51:53.330Z,12.10
2018-11-04T11:54:28.080Z,12.10
2018-11-04T11:57:03.490Z,12.10
2018-11-04T11:59:38.619Z,12.10
2018-11-04T12:02:13.653Z,12.00
2018-11-04T12:04:48.075Z,12.00
2018-11-04T12:07:22.710Z,12.00
2018-11-04T12:09:57.190Z,12.00
2018-11-04T12:12:31.685Z,12.00
2018-11-04T12:15:07.364Z,12.00
2018-11-04T12:17:42.358Z,12.00
2018-11-04T12:20:16.947Z,12.00
2018-11-04T12:22:52.267Z,12.00
2018-11-04T12:25:26.459Z,12.00
2018-11-04T12:28:01.478Z,12.00
2018-11-04T12:30:35.942Z,12.00
2018-11-04T12:33:10.020Z,12.00
2018-11-04T12:35:44.480Z,12.00
2018-11-04T12:38:19.401Z,12.00
2018-11-04T12:40:55.013Z,12.00
2018-11-04T12:43:29.564Z,12.00
2018-11-04T12:46:04.090Z,12.00
2018-11-04T12:48:39.087Z,12.00
2018-11-04T12:51:13.837Z,12.00
2018-11-04T12:53:48.912Z,12.00
2018-11-04T12:56:26.329Z,11.90
2018-11-04T12:59:01.153Z,11.90
2018-11-04T13:01:35.451Z,12.00
2018-11-04T13:04:09.598Z,11.90
2018-11-04T13:06:44.013Z,11.90
2018-11-04T13:09:18.523Z,11.90
2018-11-04T13:11:53.105Z,11.90
2018-11-04T13:14:27.706Z,11.90
2018-11-04T13:17:02.944Z,12.00
2018-11-04T13:19:38.027Z,12.00
2018-11-04T13:22:12.424Z,11.90
2018-11-04T13:24:46.580Z,11.90
2018-11-04T13:27:21.043Z,11.90
2018-11-04T13:29:55.314Z,11.90
2018-11-04T13:32:35.420Z,12.00
2018-11-04T13:35:11.971Z,12.00
2018-11-04T18:29:56.400Z,11.10
2018-11-04T18:32:30.723Z,11.10
2018-11-04T18:35:05.562Z,11.10
2018-11-04T18:37:40.971Z,11.00
2018-11-04T18:40:17.309Z,11.10
2018-11-04T18:42:51.906Z,11.10
2018-11-04T18:45:26.793Z,11.10
2018-11-04T18:48:02.304Z,11.10
2018-11-04T18:50:36.694Z,11.00
2018-11-04T18:53:11.097Z,11.10
2018-11-04T18:55:46.258Z,11.10
2018-11-04T18:58:27.350Z,11.10
2018-11-04T20:21:13.560Z,10.90
2018-11-04T20:23:48.711Z,10.90
2018-11-04T20:26:23.038Z,10.90
2018-11-04T20:28:57.333Z,10.90
2018-11-04T20:31:37.291Z,10.80
2018-11-04T20:34:12.301Z,10.80
2018-11-04T20:36:53.506Z,10.80
2018-11-04T20:39:33.148Z,10.80
2018-11-04T20:42:07.877Z,10.80
2018-11-04T20:44:44.191Z,10.80
2018-11-04T20:47:19.153Z,10.70
2018-11-04T20:49:59.434Z,10.80
2018-11-04T20:52:33.993Z,10.70
2018-11-04T20:55:08.535Z,10.80
2018-11-04T20:57:47.557Z,10.80
2018-11-04T21:00:21.842Z,10.70
2018-11-04T21:02:56.308Z,10.70
2018-11-04T21:05:30.842Z,10.70
2018-11-04T21:08:06.838Z,10.70
2018-11-04T21:10:41.622Z,10.70
2018-11-04T21:13:16.482Z,10.70
2018-11-04T21:15:50.987Z,10.70
2018-11-04T21:18:25.247Z,10.70
2018-11-04T21:21:00.141Z,10.70
2018-11-04T21:23:34.244Z,10.70
2018-11-04T21:26:08.612Z,10.70
2018-11-04T21:28:42.762Z,10.70
2018-11-04T21:31:17.222Z,10.70
2018-11-04T21:33:52.371Z,10.60
2018-11-04T21:36:26.833Z,10.60
2018-11-04T21:39:01.384Z,10.60
2018-11-04T21:41:35.768Z,10.60
2018-11-04T21:44:11.281Z,10.60
2018-11-04T21:46:45.349Z,10.60
2018-11-04T21:49:21.198Z,10.60
2018-11-04T21:51:56.171Z,10.60
2018-11-04T21:54:31.150Z,10.60
2018-11-04T21:57:05.379Z,10.60
2018-11-04T21:59:39.552Z,10.60
2018-11-04T22:02:14.190Z,10.60
2018-11-04T22:04:49.267Z,10.60
2018-11-04T22:07:23.799Z,10.60
2018-11-04T22:09:58.948Z,10.50
2018-11-04T22:12:32.905Z,10.50
2018-11-04T22:15:07.517Z,10.50
2018-11-04T22:17:42.139Z,10.40
2018-11-04T22:20:17.348Z,10.50
2018-11-04T22:22:51.767Z,10.40
2018-11-04T22:25:26.247Z,10.40
2018-11-04T22:28:00.567Z,10.40
2018-11-04T22:30:34.512Z,10.40
2018-11-04T22:33:08.741Z,10.40
2018-11-04T22:35:42.832Z,10.40
2018-11-04T22:38:17.088Z,10.40
2018-11-04T22:40:51.067Z,10.40
2018-11-04T22:43:25.433Z,10.30
2018-11-04T22:46:00.095Z,10.30
2018-11-04T22:48:34.135Z,10.30
2018-11-04T22:51:09.185Z,10.20
2018-11-04T22:53:43.609Z,10.20
2018-11-04T22:56:18.618Z,10.10
2018-11-04T22:58:52.697Z,10.10
2018-11-04T23:01:27.876Z,10.10
2018-11-04T23:04:01.945Z,10.10
2018-11-04T23:06:35.954Z,10.00
2018-11-04T23:09:10.449Z,10.10
2018-11-04T23:11:46.013Z,10.10
2018-11-04T23:14:21.160Z,10.00
2018-11-04T23:16:55.369Z,10.00
2018-11-04T23:19:29.738Z,9.90
2018-11-04T23:22:05.217Z,9.90
2018-11-04T23:24:39.285Z,9.90
2018-11-04T23:27:13.510Z,9.90
2018-11-04T23:29:48.284Z,9.90
2018-11-04T23:32:22.568Z,9.80
2018-11-04T23:34:56.848Z,9.80
2018-11-04T23:37:31.022Z,9.80
2018-11-04T23:40:05.784Z,9.80
2018-11-04T23:42:39.893Z,9.80
2018-11-04T23:45:14.603Z,9.80
2018-11-04T23:47:49.188Z,9.80
2018-11-04T23:50:23.481Z,9.70
2018-11-04T23:52:57.647Z,9.70
2018-11-04T23:55:32.012Z,9.60
2018-11-04T23:58:08.988Z,9.50
